Time;durP1;ratioP1;P1;durP2;ratioP2;P2;SDS_P1;SDS_P2;PMS_P1;PMS_P2;Temp;Humidity;BMP_temperature;BMP_pressure;BME280_temperature;BME280_humidity;BME280_pressure;Samples;Min_cycle;Max_cycle;Signal;HPM_P1;HPM_P2
2023/06/21 00:00:40;;;;;;;28.65;25.20;;;21.70;99.90;;;;;;5053997;28;20032;-66
2023/06/21 00:03:05;;;;;;;27.50;24.60;;;21.70;99.90;;;;;;5050751;28;20504;-66
2023/06/21 00:05:32;;;;;;;29.55;26.10;;;21.70;99.90;;;;;;5053819;28;20064;-66
2023/06/21 00:07:58;;;;;;;29.27;25.08;;;21.60;99.90;;;;;;5050666;28;20032;-66
2023/06/21 00:10:27;;;;;;;28.10;25.00;;;21.60;99.90;;;;;;5051013;28;20436;-67
2023/06/21 00:12:53;;;;;;;29.73;26.45;;;21.60;99.90;;;;;;5054596;28;20044;-67
2023/06/21 00:15:20;;;;;;;29.85;26.58;;;21.60;99.90;;;;;;5048982;28;20044;-69
2023/06/21 00:17:46;;;;;;;30.02;26.75;;;21.60;99.90;;;;;;5052379;28;20139;-69
2023/06/21 00:20:12;;;;;;;29.88;26.60;;;21.60;99.90;;;;;;5050750;28;20059;-68
2023/06/21 00:22:39;;;;;;;34.80;28.77;;;21.60;99.90;;;;;;5061159;28;20033;-68
2023/06/21 00:25:07;;;;;;;31.85;27.48;;;21.70;99.90;;;;;;5050824;28;20175;-67
2023/06/21 00:27:34;;;;;;;27.55;24.58;;;21.60;99.90;;;;;;5051018;28;20485;-67
2023/06/21 00:30:00;;;;;;;26.88;23.95;;;21.60;99.90;;;;;;5032941;28;20040;-67
2023/06/21 00:32:28;;;;;;;26.15;23.45;;;21.60;99.90;;;;;;5052443;28;20025;-67
2023/06/21 00:34:53;;;;;;;26.25;23.42;;;21.70;99.90;;;;;;5030957;28;20111;-67
2023/06/21 00:37:19;;;;;;;26.90;24.10;;;21.60;99.90;;;;;;5053130;28;20067;-68
2023/06/21 00:39:45;;;;;;;28.23;25.25;;;21.60;99.90;;;;;;5053728;28;20484;-68
2023/06/21 00:42:11;;;;;;;29.23;26.02;;;21.60;99.90;;;;;;5051326;28;20021;-67
2023/06/21 00:44:38;;;;;;;32.80;28.98;;;21.70;99.90;;;;;;5032842;28;20144;-68
2023/06/21 00:47:04;;;;;;;32.67;27.02;;;21.70;99.90;;;;;;5035530;28;20111;-68
2023/06/21 00:49:31;;;;;;;30.92;27.30;;;21.70;99.90;;;;;;5046778;28;20041;-67
2023/06/21 00:51:59;;;;;;;30.95;27.60;;;21.70;99.90;;;;;;5010243;28;20069;-67
2023/06/21 00:54:29;;;;;;;32.30;26.52;;;21.70;99.90;;;;;;5034975;28;20037;-67
2023/06/21 00:56:56;;;;;;;31.00;27.58;;;21.70;99.90;;;;;;5034824;28;20036;-68
2023/06/21 00:59:27;;;;;;;29.23;25.73;;;21.70;99.90;;;;;;5055007;28;20033;-67
2023/06/21 01:01:56;;;;;;;28.85;25.75;;;21.70;99.90;;;;;;5039744;28;20118;-68
2023/06/21 01:04:27;;;;;;;40.75;34.50;;;21.70;99.90;;;;;;5055312;28;20029;-67
2023/06/21 01:07:05;;;;;;;35.38;29.85;;;21.80;99.90;;;;;;5050439;28;20059;-68
2023/06/21 01:10:16;;;;;;;32.38;28.88;;;21.80;99.90;;;;;;5054660;28;20775;-67
2023/06/21 01:12:57;;;;;;;31.08;27.67;;;21.80;99.90;;;;;;5046762;28;20837;-67
2023/06/21 01:15:27;;;;;;;30.58;27.30;;;21.80;99.90;;;;;;5030799;28;20132;-68
2023/06/21 01:17:56;;;;;;;29.45;26.17;;;21.80;99.90;;;;;;5035703;28;20036;-68
2023/06/21 01:20:29;;;;;;;24.88;22.27;;;21.80;99.90;;;;;;5054911;28;20033;-68
2023/06/21 01:23:13;;;;;;;24.95;22.15;;;21.80;99.90;;;;;;5059263;28;20466;-68
2023/06/21 01:26:02;;;;;;;24.85;22.20;;;21.80;99.90;;;;;;5052064;28;20031;-68
2023/06/21 01:28:41;;;;;;;23.95;21.48;;;21.80;99.90;;;;;;5057588;28;20544;-67
2023/06/21 01:31:09;;;;;;;25.42;21.70;;;21.80;99.90;;;;;;5054215;28;20087;-68
2023/06/21 01:33:36;;;;;;;22.55;20.23;;;21.80;99.90;;;;;;5038488;28;20035;-69
2023/06/21 01:36:04;;;;;;;22.35;19.95;;;21.80;99.90;;;;;;5054227;28;20413;-68
2023/06/21 01:38:30;;;;;;;23.85;21.30;;;21.80;99.90;;;;;;5042825;28;20029;-68
2023/06/21 01:40:56;;;;;;;24.52;21.88;;;21.80;99.90;;;;;;5039930;28;20033;-68
2023/06/21 01:43:23;;;;;;;26.02;21.90;;;21.80;99.90;;;;;;5035733;28;20056;-68
2023/06/21 01:45:52;;;;;;;29.10;23.85;;;21.80;99.90;;;;;;5057565;28;20059;-68
2023/06/21 01:48:19;;;;;;;27.45;24.45;;;21.80;99.90;;;;;;5037199;28;20037;-68
2023/06/21 01:50:46;;;;;;;32.95;24.02;;;21.80;99.90;;;;;;5056547;28;20131;-67
2023/06/21 01:53:13;;;;;;;30.10;25.33;;;21.80;99.90;;;;;;5036865;28;20036;-68
2023/06/21 01:55:43;;;;;;;31.67;25.73;;;21.80;99.90;;;;;;5054359;28;20036;-68
2023/06/21 01:58:10;;;;;;;30.67;26.55;;;21.80;99.90;;;;;;5038314;28;20033;-66
2023/06/21 02:00:37;;;;;;;31.65;28.25;;;21.80;99.90;;;;;;5034335;28;20071;-68
2023/06/21 02:03:08;;;;;;;33.03;26.98;;;21.90;99.90;;;;;;5056471;28;20657;-67
2023/06/21 02:05:34;;;;;;;33.28;28.98;;;21.90;99.90;;;;;;5038501;28;20498;-67
2023/06/21 02:08:01;;;;;;;34.03;29.02;;;21.90;99.90;;;;;;5055067;28;20036;-68
2023/06/21 02:10:27;;;;;;;33.15;28.48;;;22.00;99.90;;;;;;5057378;28;20060;-67
2023/06/21 02:12:53;;;;;;;35.75;27.98;;;22.00;99.90;;;;;;5035882;28;20143;-67
2023/06/21 02:15:19;;;;;;;31.05;27.65;;;22.00;99.90;;;;;;5055627;28;20147;-66
2023/06/21 02:17:48;;;;;;;38.08;30.60;;;21.90;99.90;;;;;;5030016;28;20021;-66
2023/06/21 02:20:14;;;;;;;37.63;32.75;;;22.00;99.90;;;;;;5038117;28;20060;-65
2023/06/21 02:22:41;;;;;;;37.28;32.13;;;22.00;99.90;;;;;;5060452;28;20492;-66
2023/06/21 02:25:10;;;;;;;36.38;31.13;;;22.00;99.90;;;;;;5053998;28;20032;-65
2023/06/21 02:27:36;;;;;;;35.50;31.63;;;22.00;99.90;;;;;;5050662;28;20059;-66
2023/06/21 02:30:04;;;;;;;43.72;33.95;;;22.00;99.90;;;;;;5032782;28;20516;-65
2023/06/21 02:32:30;;;;;;;39.15;33.58;;;22.10;99.90;;;;;;5045613;28;20044;-65
2023/06/21 02:34:56;;;;;;;43.22;35.33;;;22.10;99.90;;;;;;5046372;28;20068;-65
2023/06/21 02:37:22;;;;;;;38.35;34.05;;;22.10;99.90;;;;;;5024398;28;20033;-66
2023/06/21 02:39:48;;;;;;;40.30;31.50;;;22.10;99.90;;;;;;5034434;28;20382;-66
2023/06/21 02:42:14;;;;;;;39.90;32.20;;;22.10;99.90;;;;;;5056452;28;20124;-65
2023/06/21 02:44:41;;;;;;;37.30;30.63;;;22.10;99.90;;;;;;5041719;28;20032;-66
2023/06/21 02:47:07;;;;;;;43.75;34.67;;;22.10;99.90;;;;;;5047886;28;20037;-66
2023/06/21 02:49:36;;;;;;;39.70;33.67;;;22.10;99.90;;;;;;5036012;28;20064;-65
2023/06/21 02:52:05;;;;;;;42.10;35.90;;;22.10;99.90;;;;;;5047467;28;20051;-66
2023/06/21 02:54:32;;;;;;;45.08;36.55;;;22.20;99.90;;;;;;5027247;28;20036;-65
2023/06/21 02:56:58;;;;;;;41.30;36.15;;;22.20;99.90;;;;;;5055255;28;20407;-65
2023/06/21 02:59:28;;;;;;;43.33;36.25;;;22.20;99.90;;;;;;5035874;28;20037;-64
2023/06/21 03:01:55;;;;;;;39.70;34.97;;;22.20;99.90;;;;;;5032389;28;20496;-66
2023/06/21 03:04:21;;;;;;;36.45;32.28;;;22.20;99.90;;;;;;5030565;28;20032;-65
2023/06/21 03:06:47;;;;;;;36.72;31.75;;;22.10;99.90;;;;;;5033489;28;20040;-64
2023/06/21 03:09:13;;;;;;;34.75;31.05;;;22.10;99.90;;;;;;5054206;28;20407;-64
2023/06/21 03:11:38;;;;;;;38.03;31.42;;;22.10;99.90;;;;;;5054594;28;20028;-64
2023/06/21 03:14:04;;;;;;;35.38;31.42;;;22.10;99.90;;;;;;5036070;28;20066;-65
2023/06/21 03:16:31;;;;;;;36.60;32.72;;;22.10;99.90;;;;;;5037155;28;20056;-64
2023/06/21 03:18:57;;;;;;;37.03;32.97;;;22.20;99.90;;;;;;5036701;28;20105;-65
2023/06/21 03:21:23;;;;;;;42.58;37.60;;;22.20;99.90;;;;;;5054895;28;20041;-65
2023/06/21 03:23:50;;;;;;;46.10;37.83;;;22.20;99.90;;;;;;5033763;28;20571;-65
2023/06/21 03:26:16;;;;;;;44.70;38.33;;;22.10;99.90;;;;;;5053929;28;20025;-65
2023/06/21 03:28:42;;;;;;;41.72;36.08;;;22.00;99.90;;;;;;5053072;28;20497;-65
2023/06/21 03:31:09;;;;;;;40.97;34.47;;;22.00;99.90;;;;;;5035434;28;20611;-65
2023/06/21 03:33:35;;;;;;;41.38;35.25;;;21.90;99.90;;;;;;5036680;28;20148;-65
2023/06/21 03:36:03;;;;;;;39.38;33.72;;;22.00;99.90;;;;;;5033424;28;20032;-65
2023/06/21 03:38:31;;;;;;;36.70;32.72;;;22.10;99.90;;;;;;5037120;28;20028;-65
2023/06/21 03:40:57;;;;;;;35.67;31.85;;;22.10;99.90;;;;;;5038406;28;20706;-66
2023/06/21 03:43:26;;;;;;;36.22;32.28;;;22.10;99.90;;;;;;5030617;28;20828;-67
2023/06/21 03:45:53;;;;;;;36.05;31.70;;;22.10;99.90;;;;;;5028166;28;20408;-66
2023/06/21 03:48:19;;;;;;;40.75;36.20;;;22.10;99.90;;;;;;5043403;28;20029;-66
2023/06/21 03:50:45;;;;;;;40.10;35.72;;;22.10;99.90;;;;;;5047198;28;20056;-67
2023/06/21 03:53:11;;;;;;;41.22;36.67;;;22.10;99.90;;;;;;5027302;28;20028;-66
2023/06/21 03:55:37;;;;;;;42.90;36.85;;;22.10;99.90;;;;;;5030740;28;20036;-66
2023/06/21 03:58:05;;;;;;;44.20;35.85;;;22.10;99.90;;;;;;5038135;28;20031;-66
2023/06/21 04:00:31;;;;;;;39.22;34.80;;;22.10;99.90;;;;;;5027262;28;20371;-67
2023/06/21 04:02:57;;;;;;;40.50;35.95;;;22.10;99.90;;;;;;5033985;28;20032;-67
2023/06/21 04:05:22;;;;;;;37.85;33.08;;;22.20;99.90;;;;;;5027934;28;20036;-66
2023/06/21 04:07:48;;;;;;;40.45;34.80;;;22.10;99.90;;;;;;5050299;28;20017;-67
2023/06/21 04:10:14;;;;;;;42.83;37.80;;;22.10;99.90;;;;;;5058255;28;20515;-66
2023/06/21 04:12:40;;;;;;;39.42;34.47;;;22.10;99.90;;;;;;5043462;28;20064;-67
2023/06/21 04:15:07;;;;;;;38.85;34.70;;;22.10;99.90;;;;;;5051558;28;20028;-66
2023/06/21 04:17:36;;;;;;;41.70;36.10;;;22.10;99.90;;;;;;5025933;28;20025;-67
2023/06/21 04:20:10;;;;;;;40.08;34.83;;;22.10;99.90;;;;;;5054571;28;20066;-66
2023/06/21 04:22:41;;;;;;;37.95;33.78;;;22.20;99.90;;;;;;5018607;28;20056;-66
2023/06/21 04:25:08;;;;;;;38.83;33.50;;;22.10;99.90;;;;;;5028238;28;20037;-66
2023/06/21 04:27:34;;;;;;;41.63;36.80;;;22.20;99.90;;;;;;5052092;28;20094;-67
2023/06/21 04:30:00;;;;;;;37.95;33.80;;;22.10;99.90;;;;;;5047051;28;20037;-65
2023/06/21 04:32:32;;;;;;;43.17;35.65;;;22.10;99.90;;;;;;5054289;28;20154;-65
2023/06/21 04:34:59;;;;;;;41.60;34.78;;;22.10;99.90;;;;;;5054021;28;20075;-65
2023/06/21 04:37:25;;;;;;;40.65;35.92;;;22.10;99.90;;;;;;5055894;28;20037;-65
2023/06/21 04:39:54;;;;;;;43.85;36.05;;;22.10;99.90;;;;;;5059650;28;20036;-67
2023/06/21 04:42:20;;;;;;;39.40;35.13;;;22.10;99.90;;;;;;5054067;28;20480;-65
2023/06/21 04:44:50;;;;;;;38.05;34.00;;;22.10;99.90;;;;;;5059727;28;20503;-65
2023/06/21 04:47:16;;;;;;;41.58;36.25;;;22.10;99.90;;;;;;5056889;28;20067;-65
2023/06/21 04:49:43;;;;;;;42.03;37.30;;;22.20;99.90;;;;;;5058736;28;20032;-65
2023/06/21 04:52:09;;;;;;;40.42;36.05;;;22.20;99.90;;;;;;5056053;28;20055;-65
2023/06/21 04:54:36;;;;;;;40.15;35.13;;;22.20;99.90;;;;;;5039338;28;20056;-65
2023/06/21 04:57:06;;;;;;;47.85;39.92;;;22.30;99.90;;;;;;5050911;28;20054;-65
2023/06/21 04:59:32;;;;;;;42.53;37.50;;;22.30;99.90;;;;;;5055904;28;20032;-65
2023/06/21 05:01:58;;;;;;;41.95;37.38;;;22.30;99.90;;;;;;5058071;28;20028;-65
2023/06/21 05:04:24;;;;;;;41.40;36.95;;;22.40;99.90;;;;;;5056693;28;20516;-65
2023/06/21 05:06:50;;;;;;;43.05;36.15;;;22.40;99.90;;;;;;5057850;28;20119;-65
2023/06/21 05:09:15;;;;;;;41.20;36.72;;;22.50;99.90;;;;;;5055880;28;20120;-65
2023/06/21 05:11:42;;;;;;;39.05;34.72;;;22.60;99.90;;;;;;5057300;28;20120;-65
2023/06/21 05:14:08;;;;;;;39.35;34.97;;;22.60;99.90;;;;;;5039703;28;20119;-65
2023/06/21 05:16:33;;;;;;;45.50;37.58;;;22.60;99.90;;;;;;5057729;28;20461;-65
2023/06/21 05:18:59;;;;;;;41.17;36.75;;;22.70;99.90;;;;;;5056605;28;20059;-65
2023/06/21 05:21:25;;;;;;;42.42;37.42;;;22.70;99.90;;;;;;5056242;28;20090;-65
2023/06/21 05:23:51;;;;;;;39.92;35.42;;;22.70;99.90;;;;;;5056681;28;20051;-65
2023/06/21 05:26:16;;;;;;;38.80;34.60;;;22.80;99.90;;;;;;5056129;28;20056;-65
2023/06/21 05:28:42;;;;;;;42.53;37.88;;;22.80;99.90;;;;;;5055070;28;20032;-65
2023/06/21 05:31:09;;;;;;;45.90;39.17;;;22.80;99.90;;;;;;5056385;28;20070;-66
2023/06/21 05:33:35;;;;;;;42.08;37.50;;;22.80;99.90;;;;;;5056221;28;20079;-65
2023/06/21 05:36:02;;;;;;;40.38;35.65;;;22.90;99.90;;;;;;5056729;28;20066;-65
2023/06/21 05:38:27;;;;;;;38.00;33.80;;;22.90;99.90;;;;;;5054171;28;20464;-65
2023/06/21 05:40:53;;;;;;;43.35;35.25;;;22.80;99.90;;;;;;5056858;28;20052;-65
2023/06/21 05:43:19;;;;;;;37.90;32.08;;;22.80;99.90;;;;;;5055980;28;20033;-65
2023/06/21 05:45:44;;;;;;;36.35;30.38;;;22.80;99.90;;;;;;5053840;28;20194;-65
2023/06/21 05:48:10;;;;;;;33.33;28.80;;;22.80;99.90;;;;;;5057717;28;20045;-66
2023/06/21 05:50:36;;;;;;;29.38;26.15;;;22.80;99.90;;;;;;5056085;28;20128;-65
2023/06/21 05:53:02;;;;;;;29.67;25.15;;;22.90;99.90;;;;;;5056601;28;20051;-65
2023/06/21 05:55:27;;;;;;;27.23;24.40;;;22.90;99.90;;;;;;5056380;28;20025;-65
2023/06/21 05:57:53;;;;;;;27.38;23.45;;;23.00;99.90;;;;;;5056717;28;20036;-65
2023/06/21 06:00:19;;;;;;;24.92;22.25;;;23.10;99.90;;;;;;5055931;28;20393;-65
2023/06/21 06:02:45;;;;;;;26.45;23.63;;;23.20;99.90;;;;;;5053407;28;20462;-65
2023/06/21 06:05:11;;;;;;;26.98;23.83;;;23.20;99.90;;;;;;5056302;28;20656;-66
2023/06/21 06:07:37;;;;;;;24.08;20.98;;;23.30;99.90;;;;;;5055144;28;20029;-67
2023/06/21 06:10:04;;;;;;;25.55;22.77;;;23.40;99.90;;;;;;5057277;28;20085;-67
2023/06/21 06:12:30;;;;;;;25.80;21.40;;;23.40;99.90;;;;;;5051004;28;20063;-67
2023/06/21 06:14:56;;;;;;;25.20;22.70;;;23.50;99.90;;;;;;5055772;28;20136;-67
2023/06/21 06:17:22;;;;;;;25.13;21.02;;;23.60;99.90;;;;;;5058413;28;20731;-67
2023/06/21 06:19:48;;;;;;;22.55;20.15;;;23.70;99.90;;;;;;5055846;28;20047;-66
2023/06/21 06:22:14;;;;;;;27.27;22.23;;;23.70;99.90;;;;;;5050627;28;20041;-66
2023/06/21 06:24:39;;;;;;;24.95;21.73;;;23.70;99.90;;;;;;5055954;28;20814;-67
2023/06/21 06:27:06;;;;;;;23.58;21.00;;;23.80;99.90;;;;;;5057437;28;20510;-66
2023/06/21 06:29:31;;;;;;;22.55;19.40;;;23.80;99.90;;;;;;5040125;28;20489;-67
2023/06/21 06:31:57;;;;;;;20.02;17.92;;;23.80;99.90;;;;;;5053700;28;20040;-67
2023/06/21 06:34:24;;;;;;;20.05;17.95;;;24.00;99.90;;;;;;5053354;28;20048;-67
2023/06/21 06:36:49;;;;;;;19.25;17.25;;;24.00;99.90;;;;;;5057070;28;20498;-67
2023/06/21 06:39:15;;;;;;;18.67;16.77;;;24.10;99.90;;;;;;5053268;28;20036;-67
2023/06/21 06:41:41;;;;;;;17.73;15.52;;;24.10;99.90;;;;;;5054702;28;20028;-66
2023/06/21 06:44:06;;;;;;;15.80;14.20;;;24.10;99.90;;;;;;5055004;28;20039;-67
2023/06/21 06:46:33;;;;;;;15.57;13.88;;;24.20;99.90;;;;;;5056942;28;20039;-66
2023/06/21 06:48:59;;;;;;;14.95;13.43;;;24.20;99.90;;;;;;5054413;28;20113;-67
2023/06/21 06:51:25;;;;;;;15.90;14.15;;;24.30;99.90;;;;;;5054599;28;20041;-67
2023/06/21 06:53:51;;;;;;;13.02;11.82;;;24.30;99.90;;;;;;5057730;28;20498;-67
2023/06/21 06:56:17;;;;;;;12.70;11.50;;;24.50;99.90;;;;;;5052607;28;20055;-66
2023/06/21 06:58:43;;;;;;;13.95;12.50;;;24.60;99.90;;;;;;5053416;28;20033;-67
2023/06/21 07:01:09;;;;;;;14.88;13.30;;;24.70;99.90;;;;;;5054753;28;20716;-67
2023/06/21 07:03:35;;;;;;;15.57;13.35;;;24.80;99.90;;;;;;5052158;28;20033;-66
2023/06/21 07:06:00;;;;;;;13.82;12.43;;;24.80;99.90;;;;;;5051440;28;20047;-67
2023/06/21 07:08:27;;;;;;;15.18;12.05;;;24.80;99.90;;;;;;5054038;28;20098;-66
2023/06/21 07:10:53;;;;;;;15.15;13.32;;;24.80;99.90;;;;;;5054154;28;20030;-66
2023/06/21 07:13:21;;;;;;;14.02;11.85;;;24.80;99.90;;;;;;5051601;28;20159;-67
2023/06/21 07:15:46;;;;;;;13.32;11.32;;;24.70;99.90;;;;;;5054570;28;20117;-67
2023/06/21 07:18:12;;;;;;;13.32;11.88;;;24.70;99.90;;;;;;5053434;28;20066;-67
2023/06/21 07:20:38;;;;;;;15.98;13.85;;;24.80;99.90;;;;;;5054095;28;20469;-66
2023/06/21 07:23:04;;;;;;;14.02;12.55;;;24.80;99.90;;;;;;5052847;28;20036;-67
2023/06/21 07:25:30;;;;;;;14.23;12.07;;;24.80;99.90;;;;;;5052748;28;20616;-67
2023/06/21 07:27:56;;;;;;;13.50;11.93;;;24.80;99.90;;;;;;5056437;28;20499;-67
2023/06/21 07:30:22;;;;;;;12.68;11.30;;;24.80;99.90;;;;;;5057789;28;20033;-67
2023/06/21 07:32:49;;;;;;;13.68;11.75;;;24.90;99.90;;;;;;5052001;28;20078;-67
2023/06/21 07:35:15;;;;;;;14.57;12.75;;;24.90;99.90;;;;;;5049945;28;20197;-65
2023/06/21 07:37:45;;;;;;;12.95;11.65;;;25.00;99.90;;;;;;5054629;28;20401;-65
2023/06/21 07:40:11;;;;;;;14.48;12.73;;;25.10;99.90;;;;;;5052568;28;20493;-65
2023/06/21 07:42:38;;;;;;;15.27;13.77;;;25.20;99.90;;;;;;5036290;28;20500;-65
2023/06/21 07:45:05;;;;;;;15.23;12.90;;;25.20;99.90;;;;;;5048546;28;20707;-65
2023/06/21 07:47:31;;;;;;;16.92;12.80;;;25.20;99.90;;;;;;5036945;28;20055;-65
2023/06/21 07:49:58;;;;;;;13.98;11.57;;;25.30;99.90;;;;;;5048352;28;20028;-65
2023/06/21 07:52:24;;;;;;;12.55;11.15;;;25.30;99.90;;;;;;5051278;28;21447;-65
2023/06/21 07:54:50;;;;;;;15.43;11.98;;;25.30;99.90;;;;;;5055138;28;20039;-65
2023/06/21 07:57:16;;;;;;;12.63;11.25;;;25.40;99.90;;;;;;5051611;28;20040;-65
2023/06/21 07:59:42;;;;;;;12.63;11.32;;;25.40;99.90;;;;;;5054962;28;20032;-65
2023/06/21 08:02:09;;;;;;;14.43;12.18;;;25.50;99.90;;;;;;5050738;28;20037;-65
2023/06/21 08:04:37;;;;;;;13.52;12.07;;;25.60;99.90;;;;;;5054767;28;20040;-65
2023/06/21 08:07:03;;;;;;;12.95;11.65;;;25.60;99.90;;;;;;5047035;28;20036;-66
2023/06/21 08:09:29;;;;;;;14.10;12.32;;;25.70;99.90;;;;;;5046993;28;20056;-65
2023/06/21 08:11:55;;;;;;;18.65;12.15;;;25.80;99.90;;;;;;5053908;28;20032;-65
2023/06/21 08:14:20;;;;;;;13.30;12.00;;;25.90;99.90;;;;;;5050065;28;20156;-65
2023/06/21 08:16:46;;;;;;;14.27;11.70;;;26.00;99.90;;;;;;5054894;28;20105;-66
2023/06/21 08:19:12;;;;;;;12.43;11.02;;;26.10;99.90;;;;;;5050200;28;20083;-65
2023/06/21 08:21:39;;;;;;;11.48;10.38;;;26.10;99.90;;;;;;5054224;28;20062;-65
2023/06/21 08:24:05;;;;;;;10.43;9.43;;;26.10;99.90;;;;;;5050984;28;20894;-66
2023/06/21 08:26:31;;;;;;;12.05;10.20;;;26.20;99.90;;;;;;5050869;28;20056;-65
2023/06/21 08:28:56;;;;;;;10.23;9.20;;;26.30;99.90;;;;;;5054246;28;20051;-65
2023/06/21 08:31:22;;;;;;;10.40;9.27;;;26.30;99.90;;;;;;5050943;28;20059;-66
2023/06/21 08:33:48;;;;;;;10.90;9.80;;;26.40;99.90;;;;;;5053448;28;20484;-66
2023/06/21 08:36:14;;;;;;;10.93;9.38;;;26.50;99.90;;;;;;5050900;28;20052;-66
2023/06/21 08:38:39;;;;;;;12.02;9.65;;;26.50;99.90;;;;;;5054626;28;20043;-66
2023/06/21 08:41:05;;;;;;;9.80;8.80;;;26.50;99.90;;;;;;5053786;28;20047;-66
2023/06/21 08:43:31;;;;;;;10.57;8.60;;;26.60;99.90;;;;;;5050858;28;20842;-66
2023/06/21 08:45:58;;;;;;;9.57;8.68;;;26.60;99.90;;;;;;5054485;28;20081;-66
2023/06/21 08:48:28;;;;;;;10.40;9.35;;;26.50;99.90;;;;;;5050688;28;20467;-66
2023/06/21 08:50:54;;;;;;;10.70;9.60;;;26.50;99.90;;;;;;5053947;28;20039;-66
2023/06/21 08:53:29;;;;;;;11.27;8.93;;;26.50;99.90;;;;;;5033686;28;20131;-66
2023/06/21 08:55:57;;;;;;;10.77;9.70;;;26.60;99.90;;;;;;5054273;28;20585;-67
2023/06/21 08:58:25;;;;;;;10.43;9.40;;;26.70;99.90;;;;;;5053086;28;20040;-66
2023/06/21 09:00:53;;;;;;;11.25;9.55;;;26.80;99.90;;;;;;5050479;28;20048;-66
2023/06/21 09:03:36;;;;;;;10.20;8.63;;;26.80;99.90;;;;;;5048235;28;20037;-66
2023/06/21 09:06:10;;;;;;;9.80;8.80;;;26.90;99.90;;;;;;5047785;28;20108;-66
2023/06/21 09:08:39;;;;;;;10.35;8.90;;;26.90;99.90;;;;;;5051512;28;20029;-65
2023/06/21 09:11:07;;;;;;;9.90;8.30;;;27.00;99.90;;;;;;5051641;28;20751;-66
2023/06/21 09:13:34;;;;;;;8.10;7.30;;;27.00;99.90;;;;;;5053833;28;20036;-67
2023/06/21 09:16:02;;;;;;;8.32;7.55;;;27.00;99.90;;;;;;5050803;28;20033;-67
2023/06/21 09:18:35;;;;;;;9.25;7.43;;;27.00;99.90;;;;;;5050832;28;20035;-67
2023/06/21 09:21:02;;;;;;;7.55;6.85;;;27.10;99.90;;;;;;5048339;28;20828;-67
2023/06/21 09:23:28;;;;;;;8.02;6.70;;;27.10;99.10;;;;;;5055511;28;20461;-68
2023/06/21 09:25:58;;;;;;;9.45;6.82;;;27.30;99.40;;;;;;5050942;28;20093;-68
2023/06/21 09:28:24;;;;;;;9.77;6.97;;;27.40;98.60;;;;;;5054904;28;20037;-67
2023/06/21 09:30:49;;;;;;;7.93;7.20;;;27.50;99.30;;;;;;5055821;28;20031;-67
2023/06/21 09:33:16;;;;;;;8.82;7.10;;;27.50;99.10;;;;;;5054482;28;20467;-67
2023/06/21 09:35:43;;;;;;;10.15;7.97;;;27.60;99.20;;;;;;5053763;28;20039;-67
2023/06/21 09:38:31;;;;;;;7.75;6.60;;;27.60;98.00;;;;;;5052944;28;20063;-68
2023/06/21 09:40:57;;;;;;;7.22;6.53;;;27.60;97.80;;;;;;5033788;28;20066;-68
2023/06/21 09:43:23;;;;;;;7.07;6.45;;;27.60;97.00;;;;;;5054329;28;20067;-67
2023/06/21 09:46:03;;;;;;;7.10;6.40;;;27.50;97.60;;;;;;5057053;28;20074;-67
2023/06/21 09:48:36;;;;;;;7.30;6.50;;;27.50;97.40;;;;;;5054442;28;20082;-68
2023/06/21 09:51:08;;;;;;;7.53;6.82;;;27.60;97.50;;;;;;5053823;28;20090;-68
2023/06/21 09:53:35;;;;;;;8.95;6.55;;;27.70;97.20;;;;;;5054014;28;20037;-68
2023/06/21 09:56:01;;;;;;;9.35;6.32;;;27.60;96.80;;;;;;5055584;28;20040;-68
2023/06/21 09:58:30;;;;;;;8.68;6.93;;;27.70;97.10;;;;;;5050753;28;20033;-68
2023/06/21 10:00:56;;;;;;;6.80;6.05;;;27.70;97.40;;;;;;5053112;28;20049;-68
2023/06/21 10:03:23;;;;;;;7.00;6.07;;;27.70;96.80;;;;;;5053869;28;20037;-68
2023/06/21 10:05:57;;;;;;;6.25;5.65;;;27.70;96.60;;;;;;5056058;28;20037;-68
2023/06/21 10:08:31;;;;;;;6.63;6.03;;;27.70;96.30;;;;;;5055626;28;20056;-68
2023/06/21 10:10:57;;;;;;;6.30;5.55;;;27.70;96.40;;;;;;5053814;28;20403;-68
2023/06/21 10:13:31;;;;;;;7.35;5.68;;;27.80;96.60;;;;;;5050044;28;20029;-67
2023/06/21 10:16:00;;;;;;;7.75;5.30;;;27.80;96.30;;;;;;5050571;28;20041;-68
2023/06/21 10:18:26;;;;;;;5.85;5.35;;;27.90;96.60;;;;;;5055612;28;20025;-68
2023/06/21 10:20:57;;;;;;;7.90;5.45;;;27.90;96.10;;;;;;5052800;28;20047;-68
2023/06/21 10:23:28;;;;;;;8.60;5.90;;;27.90;96.00;;;;;;5053525;28;20515;-66
2023/06/21 10:25:58;;;;;;;7.05;5.95;;;27.90;95.90;;;;;;5054000;28;20046;-66
2023/06/21 10:28:28;;;;;;;7.43;5.68;;;28.00;96.10;;;;;;5052592;28;20262;-66
2023/06/21 10:30:56;;;;;;;6.63;5.13;;;28.10;95.90;;;;;;5056238;28;20542;-66
2023/06/21 10:33:23;;;;;;;8.05;5.35;;;28.20;94.60;;;;;;5052175;28;20037;-66
2023/06/21 10:35:52;;;;;;;5.53;5.03;;;28.40;94.60;;;;;;5050059;28;20203;-66
2023/06/21 10:38:47;;;;;;;5.68;4.93;;;28.50;94.00;;;;;;5051187;28;20540;-66
2023/06/21 10:41:14;;;;;;;7.17;5.77;;;28.60;93.10;;;;;;5050078;28;20535;-66
2023/06/21 10:43:41;;;;;;;7.40;5.10;;;28.80;93.30;;;;;;5036799;28;20097;-66
2023/06/21 10:46:09;;;;;;;6.70;5.10;;;29.00;93.00;;;;;;5052292;28;20037;-66
2023/06/21 10:48:35;;;;;;;6.68;5.20;;;29.20;93.00;;;;;;5053045;28;20516;-66
2023/06/21 10:51:02;;;;;;;6.07;5.32;;;29.30;93.00;;;;;;5055411;28;20032;-66
2023/06/21 10:53:32;;;;;;;6.35;5.50;;;29.20;92.70;;;;;;5052894;28;20108;-66
2023/06/21 10:56:07;;;;;;;7.18;5.28;;;29.00;93.00;;;;;;5054618;28;20754;-66
2023/06/21 10:58:33;;;;;;;5.43;4.93;;;28.90;93.20;;;;;;5052460;28;20036;-65
2023/06/21 11:01:00;;;;;;;6.65;4.63;;;28.70;93.50;;;;;;5053131;28;20037;-66
2023/06/21 11:03:27;;;;;;;5.72;4.50;;;28.50;93.30;;;;;;5051424;28;20033;-65
2023/06/21 11:05:54;;;;;;;5.15;4.65;;;28.40;93.10;;;;;;5054845;28;20033;-66
2023/06/21 11:08:37;;;;;;;6.05;5.45;;;28.30;93.50;;;;;;5052566;28;20110;-66
2023/06/21 11:11:03;;;;;;;5.78;5.03;;;28.20;94.00;;;;;;5050937;28;20105;-65
2023/06/21 11:13:39;;;;;;;6.75;5.00;;;28.10;94.50;;;;;;5053252;28;20107;-66
2023/06/21 11:16:10;;;;;;;5.10;4.50;;;28.10;94.40;;;;;;5034489;28;20131;-66
2023/06/21 11:18:36;;;;;;;5.25;4.80;;;28.00;94.20;;;;;;5055231;28;20031;-66
2023/06/21 11:21:05;;;;;;;4.95;4.40;;;27.90;95.00;;;;;;5052043;28;20037;-66
2023/06/21 11:23:31;;;;;;;4.70;4.30;;;27.80;95.10;;;;;;5047774;28;20523;-66
2023/06/21 11:26:02;;;;;;;5.45;4.53;;;27.70;94.70;;;;;;5055324;28;20036;-66
2023/06/21 11:28:33;;;;;;;8.30;4.57;;;27.70;94.60;;;;;;5052811;28;20021;-66
2023/06/21 11:31:01;;;;;;;5.07;4.57;;;27.70;94.40;;;;;;5053853;28;20101;-66
2023/06/21 11:33:29;;;;;;;6.05;4.82;;;27.90;94.10;;;;;;5053002;28;20404;-66
2023/06/21 11:36:05;;;;;;;5.78;4.20;;;27.90;94.30;;;;;;5053190;28;20059;-66
2023/06/21 11:38:32;;;;;;;6.35;5.20;;;27.90;93.40;;;;;;5054772;28;20115;-66
2023/06/21 11:40:59;;;;;;;6.45;4.68;;;28.00;93.40;;;;;;5051251;28;20755;-66
2023/06/21 11:43:25;;;;;;;4.90;4.50;;;28.10;93.50;;;;;;5050395;28;20041;-66
2023/06/21 11:46:00;;;;;;;5.53;4.40;;;28.20;93.50;;;;;;5054974;28;20060;-66
2023/06/21 11:48:30;;;;;;;5.43;4.43;;;28.30;92.50;;;;;;5051971;28;20032;-66
2023/06/21 11:51:07;;;;;;;5.55;4.30;;;28.30;93.00;;;;;;5053485;28;20041;-66
2023/06/21 11:53:41;;;;;;;7.45;4.53;;;28.40;93.20;;;;;;5051631;28;20090;-67
2023/06/21 11:56:09;;;;;;;6.38;4.75;;;28.50;92.50;;;;;;5052270;28;20041;-67
2023/06/21 11:58:35;;;;;;;5.10;4.60;;;28.60;92.60;;;;;;5043917;28;20510;-67
2023/06/21 12:01:01;;;;;;;5.82;4.90;;;28.70;92.60;;;;;;5048751;28;20064;-67
2023/06/21 12:03:27;;;;;;;4.78;4.38;;;28.80;92.20;;;;;;5050823;28;20044;-68
2023/06/21 12:06:01;;;;;;;4.55;4.15;;;28.90;92.40;;;;;;5050219;28;20016;-67
2023/06/21 12:08:37;;;;;;;8.13;4.25;;;28.90;91.30;;;;;;5050287;28;20025;-67
2023/06/21 12:11:06;;;;;;;4.85;4.35;;;28.90;91.70;;;;;;5051644;28;20734;-66
2023/06/21 12:13:34;;;;;;;4.72;4.32;;;28.90;91.40;;;;;;5054093;28;20508;-68
2023/06/21 12:16:02;;;;;;;5.38;4.65;;;29.00;90.90;;;;;;5043270;28;20123;-67
2023/06/21 12:18:31;;;;;;;4.57;4.18;;;29.00;91.30;;;;;;5043422;28;20029;-67
2023/06/21 12:20:58;;;;;;;5.15;4.70;;;29.00;91.20;;;;;;5032677;28;20968;-67
2023/06/21 12:23:25;;;;;;;4.88;4.40;;;28.90;90.90;;;;;;5026060;28;20456;-67
2023/06/21 12:25:56;;;;;;;5.53;4.82;;;28.80;90.90;;;;;;5050851;28;20023;-66
2023/06/21 12:28:24;;;;;;;4.78;4.15;;;28.70;90.90;;;;;;5054111;28;20120;-66
2023/06/21 12:30:51;;;;;;;5.70;4.78;;;28.60;91.00;;;;;;5054923;28;20028;-68
2023/06/21 12:33:18;;;;;;;6.50;4.55;;;28.60;90.60;;;;;;5050317;28;20044;-69
2023/06/21 12:35:44;;;;;;;4.90;4.40;;;28.50;89.70;;;;;;5045437;28;20514;-67